Lemont, Illinois
Current Conditions -  °F | °C
As of 5:15 AM on Sunday 21 Dec 2014 (Local Time) from KLOT Reporting Station
Overcast Overcast  
Wind Chill: 25°   Ceiling: 3400
Heat Index: 32°   Visibility: 7mi
Dew Point: 28°   Wind: 8mph
Humidity: 87%   Direction: 170°S
Pressure: 30.22"   Gusts: NA
Location:  41.67°N, 88°W
Report Text: KLOT 211115Z AUTO 17007KT 7SM OVC034 00/M02 A3022 RMK AO2 T10011020
Loading
Personal Weather Stations






























Interactive Weather Map New forecast layout! Learn more

10-Day Weather Forecast

Advertisements
Track Severe Weather on mobile